Time;durP1;ratioP1;P1;durP2;ratioP2;P2;SDS_P1;SDS_P2;PMS_P1;PMS_P2;Temp;Humidity;BMP_temperature;BMP_pressure;BME280_temperature;BME280_humidity;BME280_pressure;Samples;Min_cycle;Max_cycle;Signal;HPM_P1;HPM_P2
2021/12/20 00:01:06;;;;;;;1.27;0.30;;;;;;;2.83;66.49;102212.00;4822949;29;20339;-78
2021/12/20 00:03:32;;;;;;;0.65;0.30;;;;;;;2.82;65.91;102223.59;4824535;29;20078;-78
2021/12/20 00:05:58;;;;;;;0.63;0.30;;;;;;;2.85;65.76;102221.66;4822574;29;20030;-78
2021/12/20 00:08:23;;;;;;;0.47;0.20;;;;;;;2.93;65.72;102229.94;4816174;29;20095;-78
2021/12/20 00:10:49;;;;;;;0.40;0.30;;;;;;;2.80;65.83;102220.19;4792894;29;20102;-78
2021/12/20 00:13:16;;;;;;;1.35;0.30;;;;;;;2.97;65.15;102228.72;4822565;29;20043;-79
2021/12/20 00:15:41;;;;;;;1.58;0.20;;;;;;;2.91;65.89;102216.75;4823825;29;20038;-77
2021/12/20 00:18:06;;;;;;;1.38;0.20;;;;;;;2.85;65.86;102224.31;4790942;29;20062;-78
2021/12/20 00:20:32;;;;;;;0.55;0.20;;;;;;;2.78;66.27;102208.84;4807120;29;20445;-78
2021/12/20 00:22:57;;;;;;;0.82;0.30;;;;;;;2.74;66.93;102211.84;4824233;29;20184;-78
2021/12/20 00:25:23;;;;;;;1.75;0.20;;;;;;;2.66;67.16;102219.53;4822600;29;20045;-78
2021/12/20 00:27:49;;;;;;;0.85;0.20;;;;;;;2.57;66.76;102194.47;4808983;29;20118;-78
2021/12/20 00:30:14;;;;;;;0.77;0.30;;;;;;;2.70;68.21;102213.03;4807640;29;20080;-79
2021/12/20 00:32:40;;;;;;;1.40;0.28;;;;;;;2.72;68.39;102221.75;4808660;29;20068;-78
2021/12/20 00:35:06;;;;;;;0.60;0.20;;;;;;;2.66;68.30;102219.53;4822760;29;20030;-78
2021/12/20 00:40:23;;;;;;;0.82;0.30;;;;;;;2.55;69.09;102213.22;4810126;29;20369;-78
2021/12/20 00:42:57;;;;;;;1.02;0.30;;;;;;;2.59;68.71;102222.66;4824231;29;20049;-79
2021/12/20 00:45:25;;;;;;;1.70;0.20;;;;;;;2.48;68.50;102214.59;4824517;29;20027;-78
2021/12/20 00:47:50;;;;;;;0.73;0.30;;;;;;;2.53;68.92;102235.53;4828317;29;20039;-78
2021/12/20 00:50:18;;;;;;;0.68;0.30;;;;;;;2.53;68.96;102224.91;4810220;29;20030;-78
2021/12/20 00:52:44;;;;;;;0.40;0.20;;;;;;;2.58;69.20;102238.69;4827038;29;20541;-78
2021/12/20 00:55:10;;;;;;;1.20;0.30;;;;;;;2.60;69.11;102226.16;4825697;29;20043;-78
2021/12/20 00:57:35;;;;;;;1.83;0.40;;;;;;;2.70;68.75;102227.16;4811526;29;20385;-78
2021/12/20 01:00:04;;;;;;;1.27;0.32;;;;;;;2.59;68.85;102227.13;4809358;29;20027;-78
2021/12/20 01:02:29;;;;;;;4.10;0.40;;;;;;;2.69;68.70;102233.44;4827707;29;20213;-78
2021/12/20 01:04:54;;;;;;;0.75;0.38;;;;;;;2.65;69.03;102228.44;4826412;29;20711;-78
2021/12/20 01:07:20;;;;;;;1.75;0.50;;;;;;;2.62;69.25;102240.19;4824999;29;20034;-78
2021/12/20 01:09:45;;;;;;;1.20;0.30;;;;;;;2.51;68.73;102232.13;4796137;29;20412;-78
2021/12/20 01:12:17;;;;;;;1.15;0.30;;;;;;;2.42;69.00;102227.47;4808922;29;20030;-78
2021/12/20 01:14:43;;;;;;;0.82;0.40;;;;;;;2.21;69.59;102217.44;4812520;29;20030;-78
2021/12/20 01:17:09;;;;;;;0.68;0.20;;;;;;;2.32;69.19;102236.13;4809512;29;20049;-78
2021/12/20 01:19:36;;;;;;;0.80;0.25;;;;;;;1.82;69.75;102160.94;4794846;29;20039;-78
2021/12/20 01:22:03;;;;;;;0.60;0.20;;;;;;;2.24;69.12;102235.81;4826011;29;20030;-78
2021/12/20 01:24:29;;;;;;;1.80;0.30;;;;;;;2.25;68.78;102234.88;4827064;29;20121;-78
2021/12/20 01:26:54;;;;;;;1.00;0.30;;;;;;;2.22;68.84;102224.47;4824428;29;20109;-78
2021/12/20 01:29:20;;;;;;;4.65;0.35;;;;;;;2.31;69.48;102237.06;4826641;29;20113;-78
2021/12/20 01:31:46;;;;;;;0.40;0.20;;;;;;;2.27;69.26;102230.28;4826990;29;20039;-78
2021/12/20 01:34:11;;;;;;;1.08;0.30;;;;;;;2.23;69.08;102235.94;4811358;29;20049;-78
2021/12/20 01:36:36;;;;;;;1.85;0.40;;;;;;;2.15;69.90;102238.28;4826597;29;20030;-78
2021/12/20 01:39:03;;;;;;;1.13;0.30;;;;;;;2.06;69.84;102235.31;4810659;29;20062;-78
2021/12/20 01:41:29;;;;;;;0.73;0.20;;;;;;;2.06;69.92;102234.47;4797091;29;20035;-78
2021/12/20 01:43:54;;;;;;;1.42;0.25;;;;;;;2.04;70.23;102241.69;4808112;29;20099;-78
2021/12/20 01:46:21;;;;;;;1.13;0.40;;;;;;;2.04;70.26;102247.00;4808929;29;20034;-78
2021/12/20 01:48:47;;;;;;;1.20;0.30;;;;;;;1.93;70.21;102228.34;4825366;29;20042;-78
2021/12/20 01:53:40;;;;;;;2.58;0.30;;;;;;;2.00;70.52;102251.69;4826162;29;20111;-78
2021/12/20 01:56:06;;;;;;;1.73;0.40;;;;;;;1.61;70.37;102191.63;4808942;29;20046;-78
2021/12/20 01:58:32;;;;;;;2.05;0.30;;;;;;;1.97;70.84;102243.94;4826443;29;20035;-78
2021/12/20 02:03:46;;;;;;;2.97;0.30;;;;;;;1.84;70.66;102238.63;4826027;29;20078;-78
2021/12/20 02:06:31;;;;;;;0.90;0.30;;;;;;;1.88;71.01;102253.38;4840975;29;20026;-78
2021/12/20 02:09:00;;;;;;;0.90;0.20;;;;;;;1.77;71.37;102244.47;4824399;29;20034;-78
2021/12/20 02:11:25;;;;;;;0.32;0.10;;;;;;;1.83;71.48;102252.88;4824271;29;20034;-78
2021/12/20 02:13:51;;;;;;;0.40;0.20;;;;;;;1.88;71.28;102255.19;4826211;29;20086;-78
2021/12/20 02:16:18;;;;;;;0.85;0.40;;;;;;;1.93;70.98;102261.03;4825648;29;20109;-78
2021/12/20 02:18:44;;;;;;;1.17;0.10;;;;;;;1.87;71.50;102261.47;4796015;29;20041;-78
2021/12/20 02:21:09;;;;;;;1.15;0.20;;;;;;;1.84;71.23;102262.50;4824671;29;20030;-78
2021/12/20 02:23:35;;;;;;;1.33;0.20;;;;;;;1.73;71.53;102249.16;4824462;29;20058;-78
2021/12/20 02:26:00;;;;;;;1.35;0.50;;;;;;;1.78;71.63;102254.13;4815368;29;20039;-78
2021/12/20 02:28:34;;;;;;;1.27;0.20;;;;;;;1.73;71.73;102254.47;4811045;29;20038;-78
2021/12/20 02:38:58;;;;;;;1.10;0.30;;;;;;;1.75;71.62;102254.34;4825447;29;20106;-78
2021/12/20 02:41:29;;;;;;;1.38;0.30;;;;;;;1.64;71.91;102228.56;4824771;29;20065;-78
2021/12/20 02:43:58;;;;;;;0.75;0.20;;;;;;;1.68;72.18;102251.25;4809547;29;20088;-77
2021/12/20 02:49:04;;;;;;;1.42;0.30;;;;;;;1.62;72.39;102249.03;4827141;29;20105;-78
2021/12/20 02:51:30;;;;;;;1.27;0.30;;;;;;;1.58;72.64;102256.34;4824720;29;20048;-78
2021/12/20 02:53:57;;;;;;;0.63;0.20;;;;;;;1.46;72.90;102235.97;4825680;29;20357;-78
2021/12/20 02:56:23;;;;;;;0.70;0.22;;;;;;;1.57;72.88;102249.34;4824888;29;20105;-78
2021/12/20 02:58:49;;;;;;;1.85;0.50;;;;;;;1.54;72.96;102243.41;4824691;29;20121;-77
2021/12/20 03:01:14;;;;;;;1.10;0.50;;;;;;;1.51;73.42;102239.16;4825136;29;20536;-78
2021/12/20 03:03:40;;;;;;;1.35;0.40;;;;;;;1.61;73.34;102252.63;4809317;29;20137;-78
2021/12/20 03:06:11;;;;;;;0.60;0.30;;;;;;;1.65;73.16;102252.31;4792710;29;20095;-77
2021/12/20 03:08:38;;;;;;;1.27;0.38;;;;;;;1.58;73.55;102247.53;4824549;29;20038;-78
2021/12/20 03:11:03;;;;;;;2.92;0.40;;;;;;;1.57;73.66;102252.00;4825429;29;20037;-78
2021/12/20 03:13:29;;;;;;;1.10;0.30;;;;;;;1.58;73.24;102247.53;4809543;29;20117;-77
2021/12/20 03:15:55;;;;;;;1.40;0.20;;;;;;;1.57;73.88;102251.16;4826373;29;20121;-76
2021/12/20 03:18:20;;;;;;;2.65;0.52;;;;;;;1.55;74.13;102261.00;4822906;29;20545;-78
2021/12/20 03:20:45;;;;;;;1.85;0.30;;;;;;;1.51;75.13;102251.56;4809461;29;20117;-78
2021/12/20 03:23:11;;;;;;;0.95;0.28;;;;;;;1.51;74.63;102248.91;4808008;29;20529;-78
2021/12/20 03:25:36;;;;;;;0.98;0.25;;;;;;;1.49;74.52;102248.16;4818851;29;20058;-78
2021/12/20 03:28:02;;;;;;;1.25;0.20;;;;;;;1.41;74.68;102249.53;4823653;29;20053;-78
2021/12/20 03:30:28;;;;;;;3.92;0.40;;;;;;;1.47;74.72;102264.19;4813564;29;20064;-77
2021/12/20 03:32:53;;;;;;;1.70;0.43;;;;;;;1.47;74.45;102263.34;4808895;29;20103;-78
2021/12/20 03:35:19;;;;;;;1.85;0.30;;;;;;;1.37;74.73;102244.56;4814156;29;20042;-78
2021/12/20 03:37:44;;;;;;;3.28;0.40;;;;;;;1.50;74.76;102260.50;4823954;29;20038;-78
2021/12/20 03:40:11;;;;;;;1.95;0.30;;;;;;;1.50;75.06;102268.44;4803397;29;20034;-78
2021/12/20 03:42:41;;;;;;;2.55;0.40;;;;;;;1.49;75.29;102266.72;4807849;29;20034;-78
2021/12/20 03:45:07;;;;;;;0.70;0.30;;;;;;;1.48;74.81;102270.34;4808290;29;20121;-78
2021/12/20 03:47:32;;;;;;;2.20;0.50;;;;;;;1.38;75.23;102262.16;4822811;29;20157;-78
2021/12/20 03:49:59;;;;;;;1.50;0.43;;;;;;;1.37;75.41;102271.09;4793050;29;20038;-78
2021/12/20 03:52:25;;;;;;;1.60;0.40;;;;;;;1.26;75.68;102266.50;4824393;29;20054;-78
2021/12/20 03:54:50;;;;;;;2.90;0.50;;;;;;;1.17;75.92;102273.25;4792403;29;20511;-78
2021/12/20 03:57:16;;;;;;;1.95;0.40;;;;;;;1.11;76.21;102267.50;4824016;29;20034;-78
2021/12/20 03:59:42;;;;;;;2.72;0.30;;;;;;;1.02;76.41;102265.47;4806477;29;20034;-77
2021/12/20 04:02:07;;;;;;;1.27;0.50;;;;;;;0.92;76.58;102268.72;4823996;29;20030;-77
2021/12/20 04:04:33;;;;;;;2.65;0.50;;;;;;;0.84;77.20;102262.22;4820978;29;20056;-78
2021/12/20 04:06:58;;;;;;;2.78;0.30;;;;;;;0.87;77.16;102277.94;4808582;29;20496;-78
2021/12/20 04:09:24;;;;;;;3.90;0.40;;;;;;;0.81;77.31;102279.16;4808173;29;20046;-78
2021/12/20 04:11:49;;;;;;;1.50;0.45;;;;;;;0.79;77.79;102286.34;4823969;29;20046;-78
2021/12/20 04:14:14;;;;;;;2.20;0.40;;;;;;;0.73;77.69;102284.13;4792239;29;20434;-78
2021/12/20 04:16:40;;;;;;;1.95;0.30;;;;;;;0.78;77.96;102274.06;4808589;29;20046;-78
2021/12/20 04:19:05;;;;;;;4.57;0.40;;;;;;;0.58;78.22;102254.16;4792753;29;20030;-78
2021/12/20 04:21:31;;;;;;;1.65;0.32;;;;;;;0.67;78.65;102280.06;4823413;29;20049;-78
2021/12/20 04:23:57;;;;;;;2.45;0.40;;;;;;;0.21;78.95;102219.44;4792605;29;20034;-78
2021/12/20 04:26:22;;;;;;;3.20;0.30;;;;;;;0.53;79.80;102292.47;4824769;29;20449;-78
2021/12/20 04:28:48;;;;;;;1.17;0.30;;;;;;;0.49;79.42;102281.22;4822168;29;20037;-78
2021/12/20 04:31:14;;;;;;;3.92;0.40;;;;;;;0.42;80.04;102282.56;4808461;29;20049;-77
2021/12/20 04:33:39;;;;;;;1.58;0.40;;;;;;;0.42;80.14;102279.91;4807579;29;20469;-78
2021/12/20 04:36:05;;;;;;;4.07;0.40;;;;;;;0.45;80.07;102277.94;4823399;29;20103;-78
2021/12/20 04:38:31;;;;;;;2.53;0.60;;;;;;;0.39;80.56;102280.97;4807594;29;20110;-78
2021/12/20 04:40:58;;;;;;;2.15;0.30;;;;;;;0.36;80.46;102290.91;4810080;29;20046;-77
2021/12/20 04:43:23;;;;;;;2.20;0.50;;;;;;;0.02;81.26;102258.59;4824471;29;20041;-77
2021/12/20 04:45:49;;;;;;;2.50;0.30;;;;;;;-0.06;81.35;102269.66;4823213;29;20042;-78
2021/12/20 04:48:14;;;;;;;3.72;0.73;;;;;;;0.02;81.70;102287.69;4822602;29;20053;-78
2021/12/20 04:50:40;;;;;;;3.30;0.50;;;;;;;-0.08;81.84;102278.63;4806696;29;20531;-78
2021/12/20 04:53:05;;;;;;;1.60;0.30;;;;;;;0.03;81.91;102305.28;4823513;29;20045;-78
2021/12/20 04:55:32;;;;;;;2.30;0.30;;;;;;;0.00;82.46;102305.50;4822220;29;20057;-78
2021/12/20 04:58:01;;;;;;;3.00;0.47;;;;;;;-0.09;82.65;102303.41;4822981;29;20085;-78
2021/12/20 05:00:29;;;;;;;4.25;0.55;;;;;;;-0.17;82.86;102289.75;4823257;29;20022;-78
2021/12/20 05:02:56;;;;;;;3.15;0.40;;;;;;;-0.04;83.48;102304.78;4822599;29;20458;-78
2021/12/20 05:05:21;;;;;;;3.40;0.68;;;;;;;0.04;82.93;102285.81;4822273;29;20095;-78
2021/12/20 05:07:47;;;;;;;1.88;0.30;;;;;;;0.26;83.11;102309.16;4807243;29;20034;-78
2021/12/20 05:10:25;;;;;;;1.13;0.40;;;;;;;0.36;83.09;102304.97;4791870;29;20049;-78
2021/12/20 05:12:52;;;;;;;3.15;0.52;;;;;;;0.39;83.20;102286.25;4792735;29;20038;-78
2021/12/20 05:15:17;;;;;;;4.13;0.70;;;;;;;0.58;83.17;102308.94;4823851;29;20404;-77
2021/12/20 05:17:43;;;;;;;2.38;0.50;;;;;;;0.53;82.70;102293.34;4822595;29;20041;-78
2021/12/20 05:20:09;;;;;;;2.75;0.60;;;;;;;0.52;82.66;102301.38;4805964;29;20113;-78
2021/12/20 05:22:34;;;;;;;1.75;0.65;;;;;;;0.58;83.09;102296.53;4823933;29;20369;-78
2021/12/20 05:24:59;;;;;;;2.38;0.52;;;;;;;0.63;83.14;102310.34;4822067;29;20202;-78
2021/12/20 05:27:25;;;;;;;1.58;0.40;;;;;;;0.50;82.89;102297.97;4821945;29;20043;-78
2021/12/20 05:29:51;;;;;;;3.05;0.60;;;;;;;0.41;83.05;102300.25;4823581;29;20034;-78
2021/12/20 05:32:16;;;;;;;2.78;0.50;;;;;;;0.44;83.61;102310.66;4809696;29;20123;-77
2021/12/20 05:34:41;;;;;;;2.60;0.50;;;;;;;0.42;83.64;102315.19;4824404;29;20394;-78
2021/12/20 05:37:07;;;;;;;4.07;0.85;;;;;;;0.38;84.18;102323.44;4828531;29;20069;-78
2021/12/20 05:39:32;;;;;;;3.95;0.85;;;;;;;0.38;84.08;102336.69;4827547;29;20361;-79
2021/12/20 05:41:58;;;;;;;5.45;0.55;;;;;;;0.30;84.56;102328.34;4802970;29;20034;-78
2021/12/20 05:44:23;;;;;;;3.75;0.50;;;;;;;0.27;84.62;102324.09;4808348;29;20065;-79
2021/12/20 05:46:49;;;;;;;3.15;0.43;;;;;;;0.26;84.68;102319.75;4821522;29;20186;-80
2021/12/20 05:49:14;;;;;;;4.68;0.80;;;;;;;0.30;84.38;102313.34;4821629;29;20449;-80
2021/12/20 05:51:40;;;;;;;5.22;0.57;;;;;;;0.47;84.13;102318.41;4816823;29;20120;-79
2021/12/20 05:54:05;;;;;;;4.90;0.80;;;;;;;0.65;84.54;102329.63;4843942;29;20041;-79
2021/12/20 05:56:30;;;;;;;3.90;0.60;;;;;;;0.72;84.33;102324.78;4811665;29;20474;-80
2021/12/20 05:58:56;;;;;;;5.32;0.70;;;;;;;0.84;84.39;102321.38;4827916;29;20064;-79
2021/12/20 06:01:21;;;;;;;3.67;0.60;;;;;;;0.88;84.08;102330.81;4824516;29;20038;-79
2021/12/20 06:03:47;;;;;;;6.63;0.57;;;;;;;0.80;84.48;102313.72;4810388;29;20057;-78
2021/12/20 06:06:12;;;;;;;7.65;0.98;;;;;;;0.86;84.46;102334.50;4821784;29;20457;-78
2021/12/20 06:08:38;;;;;;;5.80;0.90;;;;;;;0.79;84.50;102336.69;4822123;29;20046;-78
2021/12/20 06:11:03;;;;;;;3.58;0.80;;;;;;;0.72;84.78;102332.75;4820988;29;20098;-77
2021/12/20 06:13:29;;;;;;;5.13;0.70;;;;;;;0.64;84.67;102335.88;4810014;29;20473;-79
2021/12/20 06:15:54;;;;;;;3.78;0.73;;;;;;;0.63;84.88;102342.16;4820604;29;20113;-79
2021/12/20 06:18:20;;;;;;;2.97;0.80;;;;;;;0.57;84.93;102345.19;4834398;29;20528;-78
2021/12/20 06:20:45;;;;;;;3.85;0.50;;;;;;;0.52;84.76;102349.06;4828314;29;20126;-78
2021/12/20 06:23:11;;;;;;;4.32;0.70;;;;;;;0.46;85.25;102351.16;4812625;29;20023;-78
2021/12/20 06:25:37;;;;;;;3.03;0.65;;;;;;;0.44;85.25;102353.03;4803879;29;20037;-78
2021/12/20 06:28:03;;;;;;;5.97;0.70;;;;;;;0.45;85.13;102362.66;4821345;29;20038;-78
2021/12/20 06:30:29;;;;;;;3.70;0.88;;;;;;;0.48;84.86;102359.00;4808214;29;20373;-78
2021/12/20 06:32:54;;;;;;;4.60;0.70;;;;;;;0.03;84.92;102292.03;4815425;29;20046;-81
2021/12/20 06:35:20;;;;;;;3.75;0.70;;;;;;;0.42;85.19;102360.22;4812818;29;20041;-81
2021/12/20 06:37:48;;;;;;;4.18;0.70;;;;;;;0.39;85.12;102359.53;4820032;29;20095;-78
2021/12/20 06:40:14;;;;;;;8.20;0.95;;;;;;;0.34;85.43;102362.50;4812849;29;20041;-78
2021/12/20 06:42:40;;;;;;;8.77;0.70;;;;;;;0.36;85.49;102365.03;4829583;29;20037;-78
2021/12/20 06:45:07;;;;;;;4.25;0.73;;;;;;;0.35;85.51;102364.19;4823109;29;20117;-79
2021/12/20 06:47:36;;;;;;;2.63;0.52;;;;;;;0.37;85.26;102364.94;4809964;29;20125;-78
2021/12/20 06:50:03;;;;;;;5.70;1.48;;;;;;;0.36;84.98;102365.03;4824436;29;20030;-78
2021/12/20 06:52:29;;;;;;;4.07;0.55;;;;;;;0.38;85.28;102368.44;4824328;29;20181;-79
2021/12/20 06:54:55;;;;;;;5.07;0.73;;;;;;;0.42;85.37;102372.59;4812422;29;20030;-80
2021/12/20 06:57:20;;;;;;;3.08;0.60;;;;;;;0.18;85.13;102341.41;4823952;29;20046;-78
2021/12/20 06:59:46;;;;;;;6.57;1.00;;;;;;;0.35;85.05;102374.78;4797276;29;20157;-78
2021/12/20 07:02:12;;;;;;;6.72;1.05;;;;;;;0.25;85.19;102371.00;4831078;29;20056;-78
2021/12/20 07:04:37;;;;;;;6.60;1.35;;;;;;;0.38;85.39;102379.88;4831856;29;20029;-78
2021/12/20 07:07:03;;;;;;;3.05;0.60;;;;;;;0.20;85.42;102366.00;4815072;29;20058;-78
2021/12/20 07:09:28;;;;;;;3.53;0.65;;;;;;;0.28;85.47;102396.44;4833241;29;20030;-77
2021/12/20 07:11:54;;;;;;;5.53;0.80;;;;;;;0.22;85.64;102392.34;4804614;29;20118;-78
2021/12/20 07:14:20;;;;;;;4.35;0.50;;;;;;;0.16;85.86;102403.31;4809190;29;20461;-78
2021/12/20 07:16:45;;;;;;;4.47;0.70;;;;;;;0.09;85.58;102397.53;4820822;29;20030;-78
2021/12/20 07:19:11;;;;;;;2.78;0.85;;;;;;;0.15;85.84;102399.81;4821129;29;20098;-79
2021/12/20 07:21:36;;;;;;;4.68;0.80;;;;;;;0.27;85.99;102406.19;4790529;29;20034;-78
2021/12/20 07:24:02;;;;;;;3.60;0.65;;;;;;;0.12;85.78;102386.75;4820159;29;20428;-79
2021/12/20 07:26:30;;;;;;;3.92;0.60;;;;;;;0.26;85.94;102406.25;4819964;29;20062;-78
2021/12/20 07:28:55;;;;;;;5.63;0.70;;;;;;;0.20;86.22;102399.56;4803877;29;20774;-78
2021/12/20 07:31:21;;;;;;;6.63;0.90;;;;;;;0.26;86.18;102408.91;4823345;29;20038;-78
2021/12/20 07:33:47;;;;;;;5.53;1.05;;;;;;;0.27;86.08;102400.88;4805307;29;20091;-78
2021/12/20 07:36:15;;;;;;;2.95;0.68;;;;;;;0.28;86.08;102405.22;4808965;29;20042;-78
2021/12/20 07:38:41;;;;;;;6.13;0.90;;;;;;;0.29;86.76;102424.59;4819316;29;20031;-78
2021/12/20 07:41:07;;;;;;;3.80;0.60;;;;;;;0.25;86.72;102410.69;4819546;29;20114;-78
2021/12/20 07:43:32;;;;;;;5.95;0.60;;;;;;;0.44;86.39;102432.47;4827868;29;20030;-78
2021/12/20 07:45:58;;;;;;;5.65;0.73;;;;;;;0.36;86.34;102407.41;4815955;29;20049;-78
2021/12/20 07:48:24;;;;;;;5.30;0.80;;;;;;;0.36;86.93;102426.78;4822138;29;20030;-79
2021/12/20 07:50:51;;;;;;;4.82;0.60;;;;;;;0.48;86.67;102441.09;4824762;29;20525;-79
2021/12/20 07:53:16;;;;;;;3.60;0.60;;;;;;;0.34;86.98;102422.53;4796797;29;20052;-78
2021/12/20 07:55:42;;;;;;;3.83;0.50;;;;;;;0.43;87.04;102436.09;4820561;29;20420;-78
2021/12/20 07:58:08;;;;;;;2.42;0.68;;;;;;;0.47;86.95;102437.59;4795897;29;20057;-78
2021/12/20 08:00:34;;;;;;;4.55;0.55;;;;;;;0.41;87.33;102431.81;4823610;29;20067;-78
2021/12/20 08:03:00;;;;;;;9.90;1.25;;;;;;;0.45;87.14;102442.13;4803556;29;20134;-78
2021/12/20 08:05:27;;;;;;;10.40;0.90;;;;;;;0.45;87.23;102454.50;4802832;29;20142;-78
2021/12/20 08:07:53;;;;;;;4.18;1.00;;;;;;;0.42;87.49;102450.25;4789722;29;20030;-78
2021/12/20 08:10:25;;;;;;;4.75;0.90;;;;;;;0.41;87.86;102451.19;4805247;29;20039;-78
2021/12/20 08:12:52;;;;;;;5.20;1.00;;;;;;;0.41;87.64;102453.84;4806097;29;20530;-78
2021/12/20 08:15:18;;;;;;;4.90;0.90;;;;;;;0.51;87.41;102451.50;4804441;29;20046;-78
2021/12/20 08:17:44;;;;;;;4.45;0.70;;;;;;;0.27;87.73;102411.47;4812242;29;20057;-78
2021/12/20 08:20:11;;;;;;;4.57;0.57;;;;;;;0.33;87.53;102429.66;4813356;29;20077;-78
2021/12/20 08:22:38;;;;;;;4.07;0.88;;;;;;;0.55;87.20;102446.88;4801999;29;20383;-78
2021/12/20 08:25:04;;;;;;;3.70;0.73;;;;;;;0.61;86.72;102449.13;4802979;29;20031;-78
2021/12/20 08:27:30;;;;;;;4.85;0.80;;;;;;;0.63;86.45;102452.53;4810896;29;20110;-78
2021/12/20 08:29:55;;;;;;;6.72;0.77;;;;;;;0.58;86.13;102436.09;4804458;29;20110;-78
2021/12/20 08:32:20;;;;;;;4.82;0.70;;;;;;;0.75;85.85;102453.59;4804267;29;20113;-78
2021/12/20 08:34:46;;;;;;;4.80;1.00;;;;;;;0.77;85.71;102457.84;4802688;29;20099;-78
2021/12/20 08:37:11;;;;;;;5.40;0.82;;;;;;;0.81;85.42;102456.72;4803518;29;20058;-78
2021/12/20 08:39:37;;;;;;;7.68;1.33;;;;;;;0.82;85.22;102453.09;4789184;29;20031;-78
2021/12/20 08:42:03;;;;;;;5.25;0.80;;;;;;;0.78;85.11;102446.28;4806038;29;20035;-78
2021/12/20 08:44:30;;;;;;;6.22;1.05;;;;;;;0.84;84.82;102456.53;4787016;29;20224;-77
2021/12/20 08:46:56;;;;;;;6.10;0.80;;;;;;;0.61;84.60;102430.59;4800814;29;20046;-78
2021/12/20 08:49:22;;;;;;;6.30;1.23;;;;;;;0.70;84.60;102438.84;4801909;29;20095;-78
2021/12/20 08:51:48;;;;;;;4.85;1.08;;;;;;;0.70;84.37;102437.97;4787024;29;20035;-78
2021/12/20 08:54:15;;;;;;;4.80;0.88;;;;;;;0.92;84.25;102463.97;4805351;29;20132;-77
2021/12/20 08:56:41;;;;;;;6.25;0.80;;;;;;;1.00;84.02;102460.88;4805723;29;20042;-78
2021/12/20 08:59:07;;;;;;;3.38;0.80;;;;;;;0.96;83.64;102439.00;4803730;29;20489;-78
2021/12/20 09:01:33;;;;;;;7.40;1.10;;;;;;;0.92;83.52;102425.06;4802089;29;20063;-78
2021/12/20 09:03:59;;;;;;;7.15;1.38;;;;;;;1.06;83.49;102445.44;4789579;29;20059;-78
2021/12/20 09:06:25;;;;;;;3.90;0.80;;;;;;;1.31;83.86;102465.91;4806938;29;20027;-78
2021/12/20 09:08:54;;;;;;;5.15;0.77;;;;;;;1.37;83.55;102470.00;4808156;29;20051;-78
2021/12/20 09:11:25;;;;;;;6.32;1.15;;;;;;;1.44;83.65;102470.44;4805118;29;20039;-78
2021/12/20 09:13:51;;;;;;;6.43;0.80;;;;;;;1.45;83.55;102457.06;4807840;29;20031;-80
2021/12/20 09:16:17;;;;;;;5.28;0.90;;;;;;;1.50;83.59;102470.06;4807247;29;20046;-79
2021/12/20 09:18:42;;;;;;;5.95;1.10;;;;;;;1.54;83.20;102468.91;4807672;29;20430;-79
2021/12/20 09:21:10;;;;;;;7.25;1.20;;;;;;;1.56;83.47;102467.00;4805989;29;20383;-78
2021/12/20 09:23:36;;;;;;;6.40;1.10;;;;;;;1.57;83.99;102466.06;4819861;29;20042;-78
2021/12/20 09:26:02;;;;;;;5.88;0.80;;;;;;;1.45;84.04;102451.78;4793021;29;20348;-78
2021/12/20 09:28:27;;;;;;;7.20;0.85;;;;;;;1.68;84.25;102473.31;4808961;29;20437;-78
2021/12/20 09:30:53;;;;;;;3.58;0.75;;;;;;;1.70;83.89;102480.22;4820421;29;20030;-78
2021/12/20 09:33:18;;;;;;;6.65;1.02;;;;;;;1.53;84.18;102436.22;4820511;29;20109;-78
2021/12/20 09:35:44;;;;;;;2.58;0.68;;;;;;;1.76;83.71;102465.72;4819397;29;20122;-78
2021/12/20 09:38:12;;;;;;;3.72;0.80;;;;;;;1.70;83.98;102451.03;4810327;29;20262;-78
2021/12/20 09:40:40;;;;;;;8.82;1.08;;;;;;;1.83;83.54;102478.47;4821548;29;20055;-79
2021/12/20 09:43:11;;;;;;;5.93;1.00;;;;;;;1.72;83.79;102457.06;4810671;29;20794;-78
2021/12/20 09:45:40;;;;;;;6.35;0.95;;;;;;;1.91;83.31;102474.44;4814482;29;20027;-78
2021/12/20 09:48:06;;;;;;;4.20;0.88;;;;;;;1.92;83.08;102471.72;4809225;29;20095;-78
2021/12/20 09:50:32;;;;;;;6.45;1.20;;;;;;;1.97;82.83;102471.41;4817567;29;20039;-79
2021/12/20 09:52:58;;;;;;;7.15;1.20;;;;;;;1.91;82.83;102453.22;4810798;29;20031;-79
2021/12/20 09:55:23;;;;;;;3.80;1.00;;;;;;;1.85;82.66;102436.75;4806107;29;20044;-78
2021/12/20 09:57:50;;;;;;;6.03;1.00;;;;;;;1.95;82.55;102460.00;4813213;29;20361;-78
2021/12/20 10:00:18;;;;;;;6.05;1.00;;;;;;;2.07;82.54;102470.66;4823948;29;20075;-78
2021/12/20 10:02:46;;;;;;;7.90;1.23;;;;;;;2.07;82.28;102469.81;4807983;29;20027;-78
2021/12/20 10:05:13;;;;;;;5.10;0.90;;;;;;;2.04;82.05;102462.91;4807616;29;20105;-79
2021/12/20 10:07:40;;;;;;;5.53;0.90;;;;;;;2.07;81.92;102470.66;4830312;29;20078;-78
2021/12/20 10:10:08;;;;;;;8.40;1.20;;;;;;;1.55;81.27;102372.44;4807788;29;20429;-78
2021/12/20 10:12:33;;;;;;;8.52;1.23;;;;;;;2.14;80.29;102472.91;4819923;29;20045;-78
2021/12/20 10:15:00;;;;;;;8.35;1.55;;;;;;;2.17;80.33;102480.69;4823265;29;20489;-78
2021/12/20 10:17:35;;;;;;;5.57;0.93;;;;;;;2.15;79.75;102461.34;4829166;29;20026;-78
2021/12/20 10:20:18;;;;;;;5.82;1.10;;;;;;;2.27;79.74;102471.97;4833471;29;20026;-78
2021/12/20 10:22:43;;;;;;;6.93;1.10;;;;;;;2.32;79.26;102485.81;4825272;29;20038;-78
2021/12/20 10:25:26;;;;;;;8.60;1.27;;;;;;;2.37;79.33;102482.84;4823808;29;20049;-78
2021/12/20 10:27:54;;;;;;;5.88;1.00;;;;;;;2.46;78.98;102484.03;4809478;29;20453;-78
2021/12/20 10:30:29;;;;;;;11.88;1.30;;;;;;;2.52;79.38;102484.44;4820411;29;20136;-77
2021/12/20 10:32:56;;;;;;;4.97;0.90;;;;;;;2.54;78.84;102482.53;4830603;29;20038;-78
2021/12/20 10:35:32;;;;;;;7.63;1.00;;;;;;;2.53;78.70;102482.63;4829337;29;20034;-77
2021/12/20 10:38:02;;;;;;;7.68;1.00;;;;;;;2.61;78.06;102482.94;4835685;29;20514;-78
2021/12/20 10:40:28;;;;;;;6.20;1.08;;;;;;;2.52;78.43;102467.66;4823911;29;20041;-78
2021/12/20 10:42:55;;;;;;;5.72;1.38;;;;;;;2.62;78.34;102478.50;4827330;29;20034;-78
2021/12/20 10:45:21;;;;;;;6.28;1.20;;;;;;;2.58;78.01;102480.50;4816067;29;20026;-78
2021/12/20 10:47:49;;;;;;;8.02;1.35;;;;;;;2.45;78.24;102469.00;4810221;29;20030;-77
2021/12/20 10:50:42;;;;;;;5.03;0.98;;;;;;;2.49;77.94;102486.47;4823656;29;20114;-77
2021/12/20 10:53:22;;;;;;;5.43;1.15;;;;;;;2.01;78.02;102417.97;4813368;29;20049;-78
2021/12/20 10:55:54;;;;;;;8.88;1.00;;;;;;;2.36;78.50;102478.47;4811965;29;20049;-77
2021/12/20 10:58:30;;;;;;;7.78;1.13;;;;;;;2.42;78.50;102478.06;4810140;29;20041;-78
2021/12/20 11:01:21;;;;;;;8.80;1.55;;;;;;;2.44;78.47;102469.97;4809599;29;20113;-77
2021/12/20 11:03:58;;;;;;;5.93;1.02;;;;;;;2.40;78.56;102464.03;4824511;29;20047;-78
2021/12/20 11:06:26;;;;;;;5.00;1.00;;;;;;;2.44;78.06;102459.34;4825948;29;20041;-78
2021/12/20 11:09:05;;;;;;;7.32;1.58;;;;;;;2.50;78.44;102466.91;4826016;29;20159;-78
2021/12/20 11:11:39;;;;;;;7.82;1.23;;;;;;;2.52;77.88;102473.81;4826580;29;20030;-78
2021/12/20 11:14:06;;;;;;;7.20;1.00;;;;;;;2.44;78.57;102467.31;4829780;29;20042;-78
2021/12/20 11:16:31;;;;;;;4.97;0.75;;;;;;;2.45;78.15;102466.34;4829495;29;20038;-78
2021/12/20 11:19:10;;;;;;;8.48;1.13;;;;;;;2.46;78.24;102462.75;4810307;29;20030;-78
2021/12/20 11:21:38;;;;;;;5.10;0.90;;;;;;;2.48;78.43;102460.84;4825671;29;20022;-78
2021/12/20 11:24:10;;;;;;;8.32;1.00;;;;;;;2.49;78.21;102463.41;4809287;29;20030;-78
2021/12/20 11:26:37;;;;;;;4.75;1.50;;;;;;;2.45;77.58;102453.06;4818515;29;20026;-78
2021/12/20 11:29:03;;;;;;;6.13;0.73;;;;;;;2.52;77.62;102465.84;4817433;29;20485;-78
2021/12/20 11:31:28;;;;;;;4.97;1.00;;;;;;;2.50;77.25;102467.75;4820767;29;20043;-79
2021/12/20 11:33:54;;;;;;;6.63;0.82;;;;;;;2.46;77.43;102462.75;4822888;29;20049;-78
2021/12/20 11:36:20;;;;;;;5.30;0.90;;;;;;;2.54;76.99;102476.34;4823382;29;20058;-79
2021/12/20 11:38:45;;;;;;;4.30;0.93;;;;;;;2.51;76.99;102469.44;4823393;29;20035;-79
2021/12/20 11:41:11;;;;;;;5.85;0.95;;;;;;;2.49;76.78;102463.41;4823404;29;20027;-79
2021/12/20 11:43:37;;;;;;;5.28;0.80;;;;;;;2.63;76.50;102464.25;4824271;29;20046;-78
2021/12/20 11:46:06;;;;;;;6.97;0.98;;;;;;;2.62;76.53;102470.53;4833944;29;20468;-79
2021/12/20 11:48:33;;;;;;;5.53;0.90;;;;;;;2.63;76.46;102464.25;4828346;29;20056;-78
2021/12/20 11:50:59;;;;;;;7.97;1.15;;;;;;;2.47;76.77;102436.06;4832931;29;20054;-79